sensor_id;sensor_type;location;lat;lon;timestamp;P1;durP1;ratioP1;P2;durP2;ratioP2
21270;SDS011;10795;50.796;3.860;2024-01-25T00:02:23;36.67;;;5.07;;
21270;SDS011;10795;50.796;3.860;2024-01-25T00:04:51;46.90;;;6.68;;
21270;SDS011;10795;50.796;3.860;2024-01-25T00:07:17;41.17;;;5.75;;
21270;SDS011;10795;50.796;3.860;2024-01-25T00:09:42;37.65;;;5.53;;
21270;SDS011;10795;50.796;3.860;2024-01-25T00:12:11;42.97;;;6.28;;
21270;SDS011;10795;50.796;3.860;2024-01-25T00:14:36;36.60;;;5.65;;
21270;SDS011;10795;50.796;3.860;2024-01-25T00:17:02;40.40;;;5.68;;
21270;SDS011;10795;50.796;3.860;2024-01-25T00:19:30;43.60;;;6.13;;
21270;SDS011;10795;50.796;3.860;2024-01-25T00:22:00;42.28;;;5.93;;
21270;SDS011;10795;50.796;3.860;2024-01-25T00:24:26;38.92;;;6.55;;
21270;SDS011;10795;50.796;3.860;2024-01-25T00:26:52;43.17;;;5.97;;
21270;SDS011;10795;50.796;3.860;2024-01-25T00:29:18;49.33;;;6.30;;
21270;SDS011;10795;50.796;3.860;2024-01-25T00:31:48;45.17;;;6.07;;
21270;SDS011;10795;50.796;3.860;2024-01-25T00:34:16;37.83;;;4.93;;
21270;SDS011;10795;50.796;3.860;2024-01-25T00:36:47;42.58;;;5.97;;
21270;SDS011;10795;50.796;3.860;2024-01-25T00:39:13;43.67;;;6.22;;
21270;SDS011;10795;50.796;3.860;2024-01-25T00:41:40;40.85;;;6.15;;
21270;SDS011;10795;50.796;3.860;2024-01-25T00:44:09;44.17;;;5.78;;
21270;SDS011;10795;50.796;3.860;2024-01-25T00:46:40;37.92;;;5.22;;
21270;SDS011;10795;50.796;3.860;2024-01-25T00:49:10;39.78;;;6.15;;
21270;SDS011;10795;50.796;3.860;2024-01-25T00:51:36;38.90;;;5.32;;
21270;SDS011;10795;50.796;3.860;2024-01-25T00:54:08;45.35;;;5.82;;
21270;SDS011;10795;50.796;3.860;2024-01-25T00:56:34;37.38;;;5.28;;
21270;SDS011;10795;50.796;3.860;2024-01-25T00:59:00;53.83;;;7.70;;
21270;SDS011;10795;50.796;3.860;2024-01-25T01:01:26;46.00;;;6.57;;
21270;SDS011;10795;50.796;3.860;2024-01-25T01:03:55;40.10;;;6.07;;
21270;SDS011;10795;50.796;3.860;2024-01-25T01:06:24;43.67;;;5.65;;
21270;SDS011;10795;50.796;3.860;2024-01-25T01:08:53;37.63;;;5.85;;
21270;SDS011;10795;50.796;3.860;2024-01-25T01:11:21;39.65;;;6.05;;
21270;SDS011;10795;50.796;3.860;2024-01-25T01:13:49;38.15;;;5.68;;
21270;SDS011;10795;50.796;3.860;2024-01-25T01:16:15;36.95;;;4.88;;
21270;SDS011;10795;50.796;3.860;2024-01-25T01:18:41;43.90;;;5.78;;
21270;SDS011;10795;50.796;3.860;2024-01-25T01:21:09;46.00;;;5.72;;
21270;SDS011;10795;50.796;3.860;2024-01-25T01:23:35;37.17;;;5.55;;
21270;SDS011;10795;50.796;3.860;2024-01-25T01:26:00;36.95;;;5.20;;
21270;SDS011;10795;50.796;3.860;2024-01-25T01:28:28;42.42;;;6.10;;
21270;SDS011;10795;50.796;3.860;2024-01-25T01:30:54;39.80;;;6.82;;
21270;SDS011;10795;50.796;3.860;2024-01-25T01:33:22;45.15;;;6.13;;
21270;SDS011;10795;50.796;3.860;2024-01-25T01:35:50;38.47;;;5.93;;
21270;SDS011;10795;50.796;3.860;2024-01-25T01:38:18;41.15;;;5.57;;
21270;SDS011;10795;50.796;3.860;2024-01-25T01:40:44;39.60;;;5.47;;
21270;SDS011;10795;50.796;3.860;2024-01-25T01:43:19;39.72;;;6.00;;
21270;SDS011;10795;50.796;3.860;2024-01-25T01:45:49;42.78;;;5.75;;
21270;SDS011;10795;50.796;3.860;2024-01-25T01:48:17;41.78;;;5.32;;
21270;SDS011;10795;50.796;3.860;2024-01-25T01:50:43;42.42;;;5.32;;
21270;SDS011;10795;50.796;3.860;2024-01-25T01:53:10;45.10;;;5.63;;
21270;SDS011;10795;50.796;3.860;2024-01-25T01:55:36;41.28;;;6.55;;
21270;SDS011;10795;50.796;3.860;2024-01-25T01:58:03;45.50;;;6.28;;
21270;SDS011;10795;50.796;3.860;2024-01-25T02:00:34;49.20;;;6.35;;
21270;SDS011;10795;50.796;3.860;2024-01-25T02:03:04;43.83;;;5.47;;
21270;SDS011;10795;50.796;3.860;2024-01-25T02:05:32;46.83;;;6.55;;
21270;SDS011;10795;50.796;3.860;2024-01-25T02:08:00;43.47;;;6.38;;
21270;SDS011;10795;50.796;3.860;2024-01-25T02:10:28;33.20;;;5.38;;
21270;SDS011;10795;50.796;3.860;2024-01-25T02:12:54;41.08;;;6.25;;
21270;SDS011;10795;50.796;3.860;2024-01-25T02:15:24;38.15;;;5.20;;
21270;SDS011;10795;50.796;3.860;2024-01-25T02:17:54;42.42;;;5.85;;
21270;SDS011;10795;50.796;3.860;2024-01-25T02:20:21;32.65;;;5.00;;
21270;SDS011;10795;50.796;3.860;2024-01-25T02:22:49;34.20;;;5.75;;
21270;SDS011;10795;50.796;3.860;2024-01-25T02:25:17;39.03;;;5.40;;
21270;SDS011;10795;50.796;3.860;2024-01-25T02:27:43;47.38;;;5.82;;
21270;SDS011;10795;50.796;3.860;2024-01-25T02:30:09;47.85;;;5.57;;
21270;SDS011;10795;50.796;3.860;2024-01-25T02:32:35;52.38;;;5.80;;
21270;SDS011;10795;50.796;3.860;2024-01-25T02:35:01;42.95;;;5.38;;
21270;SDS011;10795;50.796;3.860;2024-01-25T02:37:29;31.40;;;5.07;;
21270;SDS011;10795;50.796;3.860;2024-01-25T02:39:57;39.78;;;5.55;;
21270;SDS011;10795;50.796;3.860;2024-01-25T02:42:25;45.25;;;6.38;;
21270;SDS011;10795;50.796;3.860;2024-01-25T02:44:51;41.88;;;5.53;;
21270;SDS011;10795;50.796;3.860;2024-01-25T02:47:17;47.33;;;6.25;;
21270;SDS011;10795;50.796;3.860;2024-01-25T02:49:46;41.08;;;5.72;;
21270;SDS011;10795;50.796;3.860;2024-01-25T02:52:14;44.22;;;6.15;;
21270;SDS011;10795;50.796;3.860;2024-01-25T02:54:40;43.47;;;5.45;;
21270;SDS011;10795;50.796;3.860;2024-01-25T02:57:08;49.50;;;5.90;;
21270;SDS011;10795;50.796;3.860;2024-01-25T02:59:38;30.17;;;4.60;;
21270;SDS011;10795;50.796;3.860;2024-01-25T03:02:11;33.85;;;5.50;;
21270;SDS011;10795;50.796;3.860;2024-01-25T03:04:37;27.05;;;4.60;;
21270;SDS011;10795;50.796;3.860;2024-01-25T03:07:05;37.80;;;5.78;;
21270;SDS011;10795;50.796;3.860;2024-01-25T03:09:31;33.38;;;4.90;;
21270;SDS011;10795;50.796;3.860;2024-01-25T03:11:57;34.58;;;5.18;;
21270;SDS011;10795;50.796;3.860;2024-01-25T03:14:22;37.45;;;5.32;;
21270;SDS011;10795;50.796;3.860;2024-01-25T03:16:50;39.75;;;5.88;;
21270;SDS011;10795;50.796;3.860;2024-01-25T03:19:18;42.85;;;6.20;;
21270;SDS011;10795;50.796;3.860;2024-01-25T03:21:48;42.90;;;5.70;;
21270;SDS011;10795;50.796;3.860;2024-01-25T03:24:16;31.65;;;4.75;;
21270;SDS011;10795;50.796;3.860;2024-01-25T03:26:42;29.77;;;5.22;;
21270;SDS011;10795;50.796;3.860;2024-01-25T03:29:08;35.33;;;6.15;;
21270;SDS011;10795;50.796;3.860;2024-01-25T03:31:39;43.13;;;5.40;;
21270;SDS011;10795;50.796;3.860;2024-01-25T03:34:04;33.97;;;4.93;;
21270;SDS011;10795;50.796;3.860;2024-01-25T03:36:30;37.47;;;5.43;;
21270;SDS011;10795;50.796;3.860;2024-01-25T03:39:01;45.95;;;5.93;;
21270;SDS011;10795;50.796;3.860;2024-01-25T03:41:28;29.83;;;5.22;;
21270;SDS011;10795;50.796;3.860;2024-01-25T03:43:54;40.42;;;5.32;;
21270;SDS011;10795;50.796;3.860;2024-01-25T03:46:22;30.23;;;4.95;;
21270;SDS011;10795;50.796;3.860;2024-01-25T03:48:48;34.40;;;5.00;;
21270;SDS011;10795;50.796;3.860;2024-01-25T03:51:14;37.00;;;4.95;;
21270;SDS011;10795;50.796;3.860;2024-01-25T03:53:40;31.83;;;4.63;;
21270;SDS011;10795;50.796;3.860;2024-01-25T03:56:14;43.97;;;5.68;;
21270;SDS011;10795;50.796;3.860;2024-01-25T03:58:42;41.25;;;5.38;;
21270;SDS011;10795;50.796;3.860;2024-01-25T04:01:11;40.58;;;5.85;;
21270;SDS011;10795;50.796;3.860;2024-01-25T04:03:37;36.53;;;6.00;;
21270;SDS011;10795;50.796;3.860;2024-01-25T04:06:06;33.67;;;4.80;;
21270;SDS011;10795;50.796;3.860;2024-01-25T04:08:32;30.73;;;4.97;;
21270;SDS011;10795;50.796;3.860;2024-01-25T04:10:57;28.73;;;4.18;;
21270;SDS011;10795;50.796;3.860;2024-01-25T04:13:23;32.13;;;5.45;;
21270;SDS011;10795;50.796;3.860;2024-01-25T04:15:51;35.00;;;5.50;;
21270;SDS011;10795;50.796;3.860;2024-01-25T04:18:20;31.55;;;4.78;;
21270;SDS011;10795;50.796;3.860;2024-01-25T04:20:48;33.47;;;4.80;;
21270;SDS011;10795;50.796;3.860;2024-01-25T04:23:18;43.70;;;5.88;;
21270;SDS011;10795;50.796;3.860;2024-01-25T04:25:44;23.20;;;4.35;;
21270;SDS011;10795;50.796;3.860;2024-01-25T04:28:09;24.83;;;4.65;;
21270;SDS011;10795;50.796;3.860;2024-01-25T04:30:38;39.55;;;5.55;;
21270;SDS011;10795;50.796;3.860;2024-01-25T04:33:06;40.35;;;5.72;;
21270;SDS011;10795;50.796;3.860;2024-01-25T04:35:32;27.13;;;4.75;;
21270;SDS011;10795;50.796;3.860;2024-01-25T04:37:58;39.58;;;5.32;;
21270;SDS011;10795;50.796;3.860;2024-01-25T04:40:24;25.83;;;4.38;;
21270;SDS011;10795;50.796;3.860;2024-01-25T04:42:52;29.25;;;4.93;;
21270;SDS011;10795;50.796;3.860;2024-01-25T04:45:18;38.50;;;6.47;;
21270;SDS011;10795;50.796;3.860;2024-01-25T04:47:43;39.65;;;6.10;;
21270;SDS011;10795;50.796;3.860;2024-01-25T04:50:09;37.70;;;6.47;;
21270;SDS011;10795;50.796;3.860;2024-01-25T04:52:35;38.42;;;5.57;;
21270;SDS011;10795;50.796;3.860;2024-01-25T04:55:01;36.97;;;6.10;;
21270;SDS011;10795;50.796;3.860;2024-01-25T04:57:31;39.95;;;6.85;;
21270;SDS011;10795;50.796;3.860;2024-01-25T04:59:57;49.58;;;7.20;;
21270;SDS011;10795;50.796;3.860;2024-01-25T05:02:25;47.05;;;6.90;;
21270;SDS011;10795;50.796;3.860;2024-01-25T05:04:51;48.20;;;8.02;;
21270;SDS011;10795;50.796;3.860;2024-01-25T05:07:16;34.95;;;6.72;;
21270;SDS011;10795;50.796;3.860;2024-01-25T05:09:42;42.95;;;7.53;;
21270;SDS011;10795;50.796;3.860;2024-01-25T05:12:11;51.97;;;8.52;;
21270;SDS011;10795;50.796;3.860;2024-01-25T05:14:37;44.63;;;7.25;;
21270;SDS011;10795;50.796;3.860;2024-01-25T05:17:03;39.65;;;7.13;;
21270;SDS011;10795;50.796;3.860;2024-01-25T05:19:31;39.10;;;8.70;;
21270;SDS011;10795;50.796;3.860;2024-01-25T05:21:59;56.78;;;8.65;;
21270;SDS011;10795;50.796;3.860;2024-01-25T05:24:25;42.47;;;7.78;;
21270;SDS011;10795;50.796;3.860;2024-01-25T05:26:51;54.78;;;9.75;;
21270;SDS011;10795;50.796;3.860;2024-01-25T05:29:19;45.63;;;7.90;;
21270;SDS011;10795;50.796;3.860;2024-01-25T05:31:47;57.72;;;8.68;;
21270;SDS011;10795;50.796;3.860;2024-01-25T05:34:15;59.72;;;8.52;;
21270;SDS011;10795;50.796;3.860;2024-01-25T05:36:40;34.45;;;8.32;;
21270;SDS011;10795;50.796;3.860;2024-01-25T05:39:09;40.85;;;7.80;;
21270;SDS011;10795;50.796;3.860;2024-01-25T05:41:40;35.63;;;8.55;;
21270;SDS011;10795;50.796;3.860;2024-01-25T05:46:36;44.83;;;8.95;;
21270;SDS011;10795;50.796;3.860;2024-01-25T05:49:05;47.67;;;8.90;;
21270;SDS011;10795;50.796;3.860;2024-01-25T05:51:31;38.20;;;7.15;;
21270;SDS011;10795;50.796;3.860;2024-01-25T05:53:56;29.25;;;7.75;;
21270;SDS011;10795;50.796;3.860;2024-01-25T05:56:22;45.50;;;7.32;;
21270;SDS011;10795;50.796;3.860;2024-01-25T05:58:50;41.90;;;7.40;;
21270;SDS011;10795;50.796;3.860;2024-01-25T06:01:16;21.95;;;8.15;;
21270;SDS011;10795;50.796;3.860;2024-01-25T06:03:42;29.73;;;6.95;;
21270;SDS011;10795;50.796;3.860;2024-01-25T06:06:07;28.88;;;7.47;;
21270;SDS011;10795;50.796;3.860;2024-01-25T06:08:33;16.08;;;7.55;;
21270;SDS011;10795;50.796;3.860;2024-01-25T06:11:01;24.10;;;6.97;;
21270;SDS011;10795;50.796;3.860;2024-01-25T06:13:29;38.00;;;7.85;;
21270;SDS011;10795;50.796;3.860;2024-01-25T06:15:59;25.38;;;7.50;;
21270;SDS011;10795;50.796;3.860;2024-01-25T06:18:25;28.13;;;7.38;;
21270;SDS011;10795;50.796;3.860;2024-01-25T06:20:51;32.42;;;7.40;;
21270;SDS011;10795;50.796;3.860;2024-01-25T06:23:17;39.08;;;7.65;;
21270;SDS011;10795;50.796;3.860;2024-01-25T06:25:43;31.48;;;7.63;;
21270;SDS011;10795;50.796;3.860;2024-01-25T06:28:08;30.73;;;7.03;;
21270;SDS011;10795;50.796;3.860;2024-01-25T06:30:34;27.25;;;6.68;;
21270;SDS011;10795;50.796;3.860;2024-01-25T06:33:00;28.80;;;6.93;;
21270;SDS011;10795;50.796;3.860;2024-01-25T06:35:26;23.05;;;6.25;;
21270;SDS011;10795;50.796;3.860;2024-01-25T06:37:54;22.48;;;6.70;;
21270;SDS011;10795;50.796;3.860;2024-01-25T06:40:20;12.63;;;5.80;;
21270;SDS011;10795;50.796;3.860;2024-01-25T06:42:45;15.10;;;5.93;;
21270;SDS011;10795;50.796;3.860;2024-01-25T06:45:11;24.05;;;6.25;;
21270;SDS011;10795;50.796;3.860;2024-01-25T06:47:37;31.67;;;6.30;;
21270;SDS011;10795;50.796;3.860;2024-01-25T06:50:05;27.17;;;6.88;;
21270;SDS011;10795;50.796;3.860;2024-01-25T06:52:32;30.50;;;7.75;;
21270;SDS011;10795;50.796;3.860;2024-01-25T06:55:06;31.73;;;7.28;;
21270;SDS011;10795;50.796;3.860;2024-01-25T06:57:34;38.50;;;9.50;;
21270;SDS011;10795;50.796;3.860;2024-01-25T07:00:03;29.67;;;9.02;;
21270;SDS011;10795;50.796;3.860;2024-01-25T07:02:31;22.67;;;8.05;;
21270;SDS011;10795;50.796;3.860;2024-01-25T07:04:57;36.47;;;9.10;;
21270;SDS011;10795;50.796;3.860;2024-01-25T07:07:23;32.28;;;7.43;;
21270;SDS011;10795;50.796;3.860;2024-01-25T07:09:49;22.95;;;7.32;;
21270;SDS011;10795;50.796;3.860;2024-01-25T07:12:17;18.13;;;7.00;;
21270;SDS011;10795;50.796;3.860;2024-01-25T07:14:43;24.98;;;7.95;;
21270;SDS011;10795;50.796;3.860;2024-01-25T07:17:11;29.13;;;7.97;;
21270;SDS011;10795;50.796;3.860;2024-01-25T07:19:39;40.38;;;8.35;;
21270;SDS011;10795;50.796;3.860;2024-01-25T07:22:05;18.77;;;7.93;;
21270;SDS011;10795;50.796;3.860;2024-01-25T07:24:31;36.25;;;8.48;;
21270;SDS011;10795;50.796;3.860;2024-01-25T07:26:56;27.40;;;8.63;;
21270;SDS011;10795;50.796;3.860;2024-01-25T07:29:22;36.83;;;9.85;;
21270;SDS011;10795;50.796;3.860;2024-01-25T07:31:48;24.58;;;8.65;;
21270;SDS011;10795;50.796;3.860;2024-01-25T07:34:16;29.13;;;8.60;;
21270;SDS011;10795;50.796;3.860;2024-01-25T07:36:44;31.25;;;9.02;;
21270;SDS011;10795;50.796;3.860;2024-01-25T07:39:10;22.13;;;8.65;;
21270;SDS011;10795;50.796;3.860;2024-01-25T07:41:37;26.33;;;8.52;;
21270;SDS011;10795;50.796;3.860;2024-01-25T07:44:02;20.75;;;8.73;;
21270;SDS011;10795;50.796;3.860;2024-01-25T07:46:28;20.98;;;8.35;;
21270;SDS011;10795;50.796;3.860;2024-01-25T07:48:54;21.63;;;7.68;;
21270;SDS011;10795;50.796;3.860;2024-01-25T07:51:21;16.85;;;7.35;;
21270;SDS011;10795;50.796;3.860;2024-01-25T07:53:47;22.38;;;8.70;;
21270;SDS011;10795;50.796;3.860;2024-01-25T07:56:15;21.52;;;8.20;;
21270;SDS011;10795;50.796;3.860;2024-01-25T07:58:43;31.48;;;7.63;;
21270;SDS011;10795;50.796;3.860;2024-01-25T08:01:09;20.25;;;7.80;;
21270;SDS011;10795;50.796;3.860;2024-01-25T08:03:35;16.02;;;7.18;;
21270;SDS011;10795;50.796;3.860;2024-01-25T08:06:02;20.75;;;7.68;;
21270;SDS011;10795;50.796;3.860;2024-01-25T08:08:27;20.33;;;8.20;;
21270;SDS011;10795;50.796;3.860;2024-01-25T08:10:58;25.63;;;8.90;;
21270;SDS011;10795;50.796;3.860;2024-01-25T08:13:27;35.33;;;8.13;;
21270;SDS011;10795;50.796;3.860;2024-01-25T08:15:55;35.22;;;8.80;;
21270;SDS011;10795;50.796;3.860;2024-01-25T08:18:26;32.10;;;8.82;;
21270;SDS011;10795;50.796;3.860;2024-01-25T08:20:57;26.83;;;8.13;;
21270;SDS011;10795;50.796;3.860;2024-01-25T08:23:23;30.05;;;7.97;;
21270;SDS011;10795;50.796;3.860;2024-01-25T08:25:51;27.90;;;9.18;;
21270;SDS011;10795;50.796;3.860;2024-01-25T08:28:22;29.85;;;8.68;;
21270;SDS011;10795;50.796;3.860;2024-01-25T08:30:47;22.08;;;9.10;;
21270;SDS011;10795;50.796;3.860;2024-01-25T08:33:13;32.47;;;10.30;;
21270;SDS011;10795;50.796;3.860;2024-01-25T08:35:39;23.30;;;10.20;;
21270;SDS011;10795;50.796;3.860;2024-01-25T08:38:06;25.38;;;9.90;;
21270;SDS011;10795;50.796;3.860;2024-01-25T08:40:34;31.08;;;10.20;;
21270;SDS011;10795;50.796;3.860;2024-01-25T08:43:02;36.65;;;9.45;;
21270;SDS011;10795;50.796;3.860;2024-01-25T08:45:29;36.10;;;10.48;;
21270;SDS011;10795;50.796;3.860;2024-01-25T08:47:55;40.47;;;10.73;;
21270;SDS011;10795;50.796;3.860;2024-01-25T08:50:22;37.63;;;11.73;;
21270;SDS011;10795;50.796;3.860;2024-01-25T08:52:50;31.27;;;11.60;;
21270;SDS011;10795;50.796;3.860;2024-01-25T08:55:18;31.33;;;11.90;;
21270;SDS011;10795;50.796;3.860;2024-01-25T08:57:46;42.08;;;12.15;;
21270;SDS011;10795;50.796;3.860;2024-01-25T09:00:13;31.08;;;12.48;;
21270;SDS011;10795;50.796;3.860;2024-01-25T09:02:39;47.13;;;12.25;;
21270;SDS011;10795;50.796;3.860;2024-01-25T09:05:05;39.60;;;11.45;;
21270;SDS011;10795;50.796;3.860;2024-01-25T09:07:32;36.88;;;11.45;;
21270;SDS011;10795;50.796;3.860;2024-01-25T09:10:02;45.05;;;12.05;;
21270;SDS011;10795;50.796;3.860;2024-01-25T09:12:30;38.65;;;13.02;;
21270;SDS011;10795;50.796;3.860;2024-01-25T09:14:55;44.47;;;14.13;;
21270;SDS011;10795;50.796;3.860;2024-01-25T09:17:26;36.97;;;12.82;;
21270;SDS011;10795;50.796;3.860;2024-01-25T09:19:51;42.53;;;12.93;;
21270;SDS011;10795;50.796;3.860;2024-01-25T09:22:17;42.88;;;12.82;;
21270;SDS011;10795;50.796;3.860;2024-01-25T09:24:47;34.53;;;12.23;;
21270;SDS011;10795;50.796;3.860;2024-01-25T09:27:17;37.38;;;11.35;;
21270;SDS011;10795;50.796;3.860;2024-01-25T09:29:45;37.22;;;12.48;;
21270;SDS011;10795;50.796;3.860;2024-01-25T09:32:16;42.53;;;11.82;;
21270;SDS011;10795;50.796;3.860;2024-01-25T09:34:42;38.40;;;12.70;;
21270;SDS011;10795;50.796;3.860;2024-01-25T09:37:08;47.90;;;13.82;;
21270;SDS011;10795;50.796;3.860;2024-01-25T09:39:36;44.05;;;13.10;;
21270;SDS011;10795;50.796;3.860;2024-01-25T09:42:04;45.92;;;12.73;;
21270;SDS011;10795;50.796;3.860;2024-01-25T09:44:31;56.28;;;17.17;;
21270;SDS011;10795;50.796;3.860;2024-01-25T09:46:57;63.00;;;14.88;;
21270;SDS011;10795;50.796;3.860;2024-01-25T09:49:23;66.72;;;17.95;;
21270;SDS011;10795;50.796;3.860;2024-01-25T09:51:50;69.47;;;16.35;;
21270;SDS011;10795;50.796;3.860;2024-01-25T09:54:19;63.15;;;17.45;;
21270;SDS011;10795;50.796;3.860;2024-01-25T09:56:47;71.72;;;18.58;;
21270;SDS011;10795;50.796;3.860;2024-01-25T09:59:18;65.55;;;17.25;;
21270;SDS011;10795;50.796;3.860;2024-01-25T10:01:44;70.57;;;16.75;;
21270;SDS011;10795;50.796;3.860;2024-01-25T10:04:14;67.35;;;16.60;;
21270;SDS011;10795;50.796;3.860;2024-01-25T10:06:40;65.25;;;15.38;;
21270;SDS011;10795;50.796;3.860;2024-01-25T10:09:09;69.35;;;15.88;;
21270;SDS011;10795;50.796;3.860;2024-01-25T10:11:35;68.53;;;14.90;;
21270;SDS011;10795;50.796;3.860;2024-01-25T10:14:03;52.90;;;13.48;;
21270;SDS011;10795;50.796;3.860;2024-01-25T10:16:29;78.60;;;14.88;;
21270;SDS011;10795;50.796;3.860;2024-01-25T10:19:00;49.35;;;10.70;;
21270;SDS011;10795;50.796;3.860;2024-01-25T10:21:27;59.42;;;12.63;;
21270;SDS011;10795;50.796;3.860;2024-01-25T10:23:57;60.13;;;13.23;;
21270;SDS011;10795;50.796;3.860;2024-01-25T10:26:25;43.22;;;10.43;;
21270;SDS011;10795;50.796;3.860;2024-01-25T10:28:53;54.65;;;10.57;;
21270;SDS011;10795;50.796;3.860;2024-01-25T10:31:22;54.95;;;12.38;;
21270;SDS011;10795;50.796;3.860;2024-01-25T10:33:49;40.78;;;11.60;;
21270;SDS011;10795;50.796;3.860;2024-01-25T10:36:23;51.13;;;11.85;;
21270;SDS011;10795;50.796;3.860;2024-01-25T10:38:49;52.17;;;11.50;;
21270;SDS011;10795;50.796;3.860;2024-01-25T10:41:18;52.85;;;11.13;;
21270;SDS011;10795;50.796;3.860;2024-01-25T10:43:48;59.97;;;11.45;;
21270;SDS011;10795;50.796;3.860;2024-01-25T10:46:16;53.08;;;10.70;;
21270;SDS011;10795;50.796;3.860;2024-01-25T10:48:42;44.40;;;10.55;;
21270;SDS011;10795;50.796;3.860;2024-01-25T10:51:09;49.92;;;11.32;;
21270;SDS011;10795;50.796;3.860;2024-01-25T10:53:36;47.35;;;10.52;;
21270;SDS011;10795;50.796;3.860;2024-01-25T10:56:03;44.72;;;10.82;;
21270;SDS011;10795;50.796;3.860;2024-01-25T10:58:30;50.47;;;10.90;;
21270;SDS011;10795;50.796;3.860;2024-01-25T11:01:01;49.50;;;10.43;;
21270;SDS011;10795;50.796;3.860;2024-01-25T11:03:28;41.80;;;10.15;;
21270;SDS011;10795;50.796;3.860;2024-01-25T11:08:37;41.80;;;11.05;;
21270;SDS011;10795;50.796;3.860;2024-01-25T11:11:11;46.15;;;10.98;;
21270;SDS011;10795;50.796;3.860;2024-01-25T11:13:39;48.40;;;11.10;;
21270;SDS011;10795;50.796;3.860;2024-01-25T11:16:14;22.38;;;8.52;;
21270;SDS011;10795;50.796;3.860;2024-01-25T11:18:52;44.45;;;11.43;;
21270;SDS011;10795;50.796;3.860;2024-01-25T11:24:03;42.10;;;9.90;;
21270;SDS011;10795;50.796;3.860;2024-01-25T11:26:29;43.75;;;10.82;;
21270;SDS011;10795;50.796;3.860;2024-01-25T11:28:57;33.92;;;9.65;;
21270;SDS011;10795;50.796;3.860;2024-01-25T11:31:28;33.53;;;10.30;;
21270;SDS011;10795;50.796;3.860;2024-01-25T11:34:02;33.53;;;9.88;;
21270;SDS011;10795;50.796;3.860;2024-01-25T11:36:28;31.90;;;9.30;;
21270;SDS011;10795;50.796;3.860;2024-01-25T11:38:54;27.35;;;9.52;;
21270;SDS011;10795;50.796;3.860;2024-01-25T11:41:20;30.63;;;9.23;;
21270;SDS011;10795;50.796;3.860;2024-01-25T11:43:49;29.33;;;8.38;;
21270;SDS011;10795;50.796;3.860;2024-01-25T11:46:20;24.65;;;9.27;;
21270;SDS011;10795;50.796;3.860;2024-01-25T11:48:46;25.60;;;9.07;;
21270;SDS011;10795;50.796;3.860;2024-01-25T11:51:12;22.08;;;9.38;;
21270;SDS011;10795;50.796;3.860;2024-01-25T11:53:39;21.42;;;8.27;;
21270;SDS011;10795;50.796;3.860;2024-01-25T11:56:06;23.05;;;8.20;;
21270;SDS011;10795;50.796;3.860;2024-01-25T11:58:36;19.92;;;8.35;;
21270;SDS011;10795;50.796;3.860;2024-01-25T12:01:03;20.55;;;7.50;;
21270;SDS011;10795;50.796;3.860;2024-01-25T12:03:34;20.85;;;7.28;;
21270;SDS011;10795;50.796;3.860;2024-01-25T12:06:02;17.40;;;6.80;;
21270;SDS011;10795;50.796;3.860;2024-01-25T12:08:34;17.92;;;7.28;;
21270;SDS011;10795;50.796;3.860;2024-01-25T12:11:04;14.75;;;5.95;;
21270;SDS011;10795;50.796;3.860;2024-01-25T12:13:41;14.70;;;6.30;;
21270;SDS011;10795;50.796;3.860;2024-01-25T12:16:08;15.73;;;5.78;;
21270;SDS011;10795;50.796;3.860;2024-01-25T12:18:35;10.32;;;5.00;;
21270;SDS011;10795;50.796;3.860;2024-01-25T12:21:02;10.45;;;5.47;;
21270;SDS011;10795;50.796;3.860;2024-01-25T12:23:30;12.90;;;4.80;;
21270;SDS011;10795;50.796;3.860;2024-01-25T12:25:58;8.48;;;4.80;;
21270;SDS011;10795;50.796;3.860;2024-01-25T12:28:27;9.15;;;4.68;;
21270;SDS011;10795;50.796;3.860;2024-01-25T12:30:55;9.45;;;4.80;;
21270;SDS011;10795;50.796;3.860;2024-01-25T12:33:21;9.15;;;4.63;;
21270;SDS011;10795;50.796;3.860;2024-01-25T12:35:47;12.15;;;4.97;;
21270;SDS011;10795;50.796;3.860;2024-01-25T12:38:13;7.68;;;5.28;;
21270;SDS011;10795;50.796;3.860;2024-01-25T12:40:38;9.85;;;5.35;;
21270;SDS011;10795;50.796;3.860;2024-01-25T12:43:06;11.38;;;6.25;;
21270;SDS011;10795;50.796;3.860;2024-01-25T12:45:35;8.57;;;5.80;;
21270;SDS011;10795;50.796;3.860;2024-01-25T12:48:01;11.57;;;6.75;;
21270;SDS011;10795;50.796;3.860;2024-01-25T12:50:28;16.55;;;7.22;;
21270;SDS011;10795;50.796;3.860;2024-01-25T12:52:56;9.77;;;7.25;;
21270;SDS011;10795;50.796;3.860;2024-01-25T12:55:22;12.25;;;8.32;;
21270;SDS011;10795;50.796;3.860;2024-01-25T12:57:48;14.95;;;7.95;;
21270;SDS011;10795;50.796;3.860;2024-01-25T13:00:21;13.93;;;8.60;;
21270;SDS011;10795;50.796;3.860;2024-01-25T13:02:49;13.75;;;8.90;;
21270;SDS011;10795;50.796;3.860;2024-01-25T13:05:15;20.52;;;9.55;;
21270;SDS011;10795;50.796;3.860;2024-01-25T13:07:46;16.08;;;10.23;;
21270;SDS011;10795;50.796;3.860;2024-01-25T13:10:14;14.30;;;8.95;;
21270;SDS011;10795;50.796;3.860;2024-01-25T13:12:42;21.70;;;10.70;;
21270;SDS011;10795;50.796;3.860;2024-01-25T13:15:10;20.15;;;11.02;;
21270;SDS011;10795;50.796;3.860;2024-01-25T13:17:36;21.65;;;12.50;;
21270;SDS011;10795;50.796;3.860;2024-01-25T13:20:05;21.05;;;12.30;;
21270;SDS011;10795;50.796;3.860;2024-01-25T13:22:33;21.08;;;13.85;;
21270;SDS011;10795;50.796;3.860;2024-01-25T13:25:00;26.90;;;14.60;;
21270;SDS011;10795;50.796;3.860;2024-01-25T13:27:28;30.77;;;17.05;;
21270;SDS011;10795;50.796;3.860;2024-01-25T13:29:54;28.48;;;15.52;;
21270;SDS011;10795;50.796;3.860;2024-01-25T13:32:25;33.28;;;18.77;;
21270;SDS011;10795;50.796;3.860;2024-01-25T13:34:51;35.22;;;19.55;;
21270;SDS011;10795;50.796;3.860;2024-01-25T13:37:19;38.13;;;19.55;;
21270;SDS011;10795;50.796;3.860;2024-01-25T13:39:50;33.78;;;19.48;;
21270;SDS011;10795;50.796;3.860;2024-01-25T13:42:18;34.85;;;19.08;;
21270;SDS011;10795;50.796;3.860;2024-01-25T13:44:43;36.33;;;19.90;;
21270;SDS011;10795;50.796;3.860;2024-01-25T13:47:10;39.83;;;21.00;;
21270;SDS011;10795;50.796;3.860;2024-01-25T13:49:38;38.70;;;20.95;;
21270;SDS011;10795;50.796;3.860;2024-01-25T13:52:04;38.40;;;19.58;;
21270;SDS011;10795;50.796;3.860;2024-01-25T13:54:30;32.78;;;19.65;;
21270;SDS011;10795;50.796;3.860;2024-01-25T13:56:56;36.00;;;18.65;;
21270;SDS011;10795;50.796;3.860;2024-01-25T13:59:21;35.13;;;18.83;;
21270;SDS011;10795;50.796;3.860;2024-01-25T14:01:49;35.80;;;18.38;;
21270;SDS011;10795;50.796;3.860;2024-01-25T14:04:17;30.48;;;17.67;;
21270;SDS011;10795;50.796;3.860;2024-01-25T14:06:43;36.83;;;17.60;;
21270;SDS011;10795;50.796;3.860;2024-01-25T14:09:09;27.85;;;17.13;;
21270;SDS011;10795;50.796;3.860;2024-01-25T14:11:34;29.48;;;15.75;;
21270;SDS011;10795;50.796;3.860;2024-01-25T14:14:03;33.20;;;17.63;;
21270;SDS011;10795;50.796;3.860;2024-01-25T14:16:31;31.65;;;15.75;;
21270;SDS011;10795;50.796;3.860;2024-01-25T14:19:01;28.27;;;16.20;;
21270;SDS011;10795;50.796;3.860;2024-01-25T14:21:29;32.47;;;16.15;;
21270;SDS011;10795;50.796;3.860;2024-01-25T14:23:58;25.17;;;15.00;;
21270;SDS011;10795;50.796;3.860;2024-01-25T14:26:24;24.25;;;15.20;;
21270;SDS011;10795;50.796;3.860;2024-01-25T14:28:52;27.58;;;14.48;;
21270;SDS011;10795;50.796;3.860;2024-01-25T14:31:18;25.40;;;14.25;;
21270;SDS011;10795;50.796;3.860;2024-01-25T14:33:43;31.52;;;13.70;;
21270;SDS011;10795;50.796;3.860;2024-01-25T14:36:09;30.80;;;14.35;;
21270;SDS011;10795;50.796;3.860;2024-01-25T14:38:35;29.60;;;13.60;;
21270;SDS011;10795;50.796;3.860;2024-01-25T14:41:03;29.48;;;14.05;;